Time;durP1;ratioP1;P1;durP2;ratioP2;P2;SDS_P1;SDS_P2;PMS_P1;PMS_P2;Temp;Humidity;BMP_temperature;BMP_pressure;BME280_temperature;BME280_humidity;BME280_pressure;Samples;Min_cycle;Max_cycle;Signal;HPM_P1;HPM_P2
2021/04/09 00:00:08;;;;;;;;;;;23.20;99.90;;;;;;5048075;28;20151;-80
2021/04/09 00:02:35;;;;;;;;;;;23.30;99.90;;;;;;5047675;28;20023;-83
2021/04/09 00:05:04;;;;;;;;;;;23.50;99.90;;;;;;5039475;28;19920;-81
2021/04/09 00:07:31;;;;;;;;;;;23.40;99.90;;;;;;5042337;28;19913;-81
2021/04/09 00:09:58;;;;;;;;;;;23.40;99.90;;;;;;5046634;28;20046;-81
2021/04/09 00:12:24;;;;;;;;;;;23.60;99.90;;;;;;5065582;28;19912;-82
2021/04/09 00:14:51;;;;;;;;;;;23.70;99.90;;;;;;5073186;28;19908;-83
2021/04/09 00:17:18;;;;;;;;;;;23.80;99.90;;;;;;5054666;28;19913;-81
2021/04/09 00:19:44;;;;;;;;;;;24.10;99.90;;;;;;5053077;28;19913;-80
2021/04/09 00:22:11;;;;;;;;;;;24.20;99.90;;;;;;5053115;28;19909;-80
2021/04/09 00:24:38;;;;;;;;;;;24.30;99.90;;;;;;5053024;28;19992;-79
2021/04/09 00:27:04;;;;;;;;;;;24.40;99.90;;;;;;5053191;28;19909;-81
2021/04/09 00:29:31;;;;;;;;;;;24.40;99.90;;;;;;5052756;28;19921;-79
2021/04/09 00:31:59;;;;;;;;;;;24.40;99.90;;;;;;5053064;28;19913;-80
2021/04/09 00:34:26;;;;;;;;;;;24.40;99.90;;;;;;5052865;28;20451;-81
2021/04/09 00:36:52;;;;;;;;;;;24.20;99.90;;;;;;5053119;28;19909;-80
2021/04/09 00:39:19;;;;;;;;;;;24.20;99.90;;;;;;5053060;28;20387;-79
2021/04/09 00:41:52;;;;;;;;;;;24.10;99.90;;;;;;5053151;28;19949;-81
2021/04/09 00:44:19;;;;;;;;;;;24.00;99.90;;;;;;5053141;28;19916;-80
2021/04/09 00:46:45;;;;;;;;;;;23.90;99.90;;;;;;5052593;28;19912;-80
2021/04/09 00:49:12;;;;;;;;;;;23.90;99.90;;;;;;5052861;28;19916;-80
2021/04/09 00:51:39;;;;;;;;;;;24.00;99.90;;;;;;5053636;28;19920;-81
2021/04/09 00:54:07;;;;;;;;;;;23.90;99.90;;;;;;5056978;28;19908;-81
2021/04/09 00:56:35;;;;;;;;;;;24.00;99.90;;;;;;5058528;28;19920;-81
2021/04/09 00:59:02;;;;;;;;;;;24.30;99.90;;;;;;5060736;28;19937;-81
2021/04/09 01:01:33;;;;;;;;;;;24.40;99.90;;;;;;5068188;28;19927;-81
2021/04/09 01:04:03;;;;;;;;;;;24.40;99.40;;;;;;5078179;28;20062;-80
2021/04/09 01:06:32;;;;;;;;;;;24.50;99.50;;;;;;5078298;28;19920;-80
2021/04/09 01:08:59;;;;;;;;;;;24.50;98.80;;;;;;5077912;28;19901;-82
2021/04/09 01:11:26;;;;;;;;;;;24.50;99.70;;;;;;5077585;28;19893;-81
2021/04/09 01:13:53;;;;;;;;;;;24.50;98.30;;;;;;5077043;28;20012;-80
2021/04/09 01:16:31;;;;;;;;;;;24.50;99.00;;;;;;5076807;28;19935;-81
2021/04/09 01:19:16;;;;;;;;;;;24.60;97.70;;;;;;5074318;28;20004;-80
2021/04/09 01:21:56;;;;;;;;;;;24.70;98.60;;;;;;5077265;28;19964;-81
2021/04/09 01:24:36;;;;;;;;;;;24.70;99.10;;;;;;5078114;28;19980;-80
2021/04/09 01:27:20;;;;;;;;;;;24.60;98.30;;;;;;5058122;28;19991;-80
2021/04/09 01:30:04;;;;;;;;;;;24.60;98.90;;;;;;5056091;28;19989;-80
2021/04/09 01:32:31;;;;;;;;;;;24.60;98.40;;;;;;5055737;28;19913;-80
2021/04/09 01:35:04;;;;;;;;;;;24.50;99.00;;;;;;5056054;28;19956;-81
2021/04/09 01:37:37;;;;;;;;;;;24.50;99.00;;;;;;5055919;28;19916;-80
2021/04/09 01:40:11;;;;;;;;;;;24.60;99.00;;;;;;5054687;28;20275;-80
2021/04/09 01:42:39;;;;;;;;;;;24.60;98.70;;;;;;5056047;28;19940;-80
2021/04/09 01:45:07;;;;;;;;;;;24.50;98.80;;;;;;5054689;28;19963;-80
2021/04/09 01:47:34;;;;;;;;;;;24.50;98.80;;;;;;5055910;28;20006;-82
2021/04/09 01:50:01;;;;;;;;;;;24.50;98.50;;;;;;5054527;28;20038;-82
2021/04/09 01:52:30;;;;;;;;;;;24.40;98.70;;;;;;5054389;28;19909;-81
2021/04/09 01:54:56;;;;;;;;;;;24.30;99.00;;;;;;5055721;28;19968;-81
2021/04/09 01:57:25;;;;;;;;;;;24.20;99.00;;;;;;5055460;28;20386;-82
2021/04/09 01:59:52;;;;;;;;;;;24.10;99.90;;;;;;5055843;28;19951;-81
2021/04/09 02:02:19;;;;;;;;;;;24.10;99.90;;;;;;5054913;28;19917;-82
2021/04/09 02:04:46;;;;;;;;;;;23.90;99.90;;;;;;5055647;28;19952;-83
2021/04/09 02:07:17;;;;;;;;;;;23.90;99.90;;;;;;5054035;28;19909;-83
2021/04/09 02:09:45;;;;;;;;;;;23.90;99.90;;;;;;5055506;28;19959;-83
2021/04/09 02:12:12;;;;;;;;;;;23.90;99.90;;;;;;5055249;28;19967;-84
2021/04/09 02:14:41;;;;;;;;;;;23.90;99.90;;;;;;5054973;28;19909;-83
2021/04/09 02:17:08;;;;;;;;;;;23.90;99.90;;;;;;5054701;28;20371;-82
2021/04/09 02:19:35;;;;;;;;;;;24.00;99.90;;;;;;5055046;28;19909;-82
2021/04/09 02:22:02;;;;;;;;;;;24.10;99.90;;;;;;5054916;28;19928;-81
2021/04/09 02:24:29;;;;;;;;;;;24.00;99.90;;;;;;5054554;28;20428;-82
2021/04/09 02:26:55;;;;;;;;;;;24.00;99.90;;;;;;5055095;28;19908;-83
2021/04/09 02:29:22;;;;;;;;;;;23.90;99.90;;;;;;5054814;28;20272;-81
2021/04/09 02:31:49;;;;;;;;;;;23.90;99.90;;;;;;5054852;28;19983;-82
2021/04/09 02:34:16;;;;;;;;;;;23.90;99.90;;;;;;5054702;28;19908;-81
2021/04/09 02:36:43;;;;;;;;;;;23.80;99.90;;;;;;5054809;28;20317;-82
2021/04/09 02:39:13;;;;;;;;;;;23.80;99.90;;;;;;5055037;28;19951;-82
2021/04/09 02:41:42;;;;;;;;;;;23.80;99.90;;;;;;5054753;28;19916;-82
2021/04/09 02:44:09;;;;;;;;;;;23.80;99.90;;;;;;5054060;28;19921;-82
2021/04/09 02:46:44;;;;;;;;;;;23.80;99.90;;;;;;5053239;28;20389;-82
2021/04/09 02:49:15;;;;;;;;;;;23.90;99.90;;;;;;5054556;28;19959;-81
2021/04/09 02:51:42;;;;;;;;;;;23.90;99.90;;;;;;5054222;28;19912;-81
2021/04/09 02:54:15;;;;;;;;;;;23.90;99.90;;;;;;5054649;28;19999;-83
2021/04/09 02:56:42;;;;;;;;;;;24.20;99.90;;;;;;5053970;28;20279;-82
2021/04/09 02:59:13;;;;;;;;;;;24.20;99.90;;;;;;5054618;28;19908;-83
2021/04/09 03:01:45;;;;;;;;;;;24.20;99.90;;;;;;5054156;28;19909;-82
2021/04/09 03:04:13;;;;;;;;;;;24.30;99.90;;;;;;5053966;28;19916;-82
2021/04/09 03:06:42;;;;;;;;;;;24.20;99.90;;;;;;5052840;28;19915;-82
2021/04/09 03:09:09;;;;;;;;;;;24.20;99.90;;;;;;5054146;28;19955;-82
2021/04/09 03:11:36;;;;;;;;;;;24.30;99.90;;;;;;5054472;28;19909;-83
2021/04/09 03:14:03;;;;;;;;;;;24.20;99.90;;;;;;5053360;28;19948;-82
2021/04/09 03:16:33;;;;;;;;;;;24.10;99.90;;;;;;5053857;28;20342;-83
2021/04/09 03:19:00;;;;;;;;;;;24.20;99.90;;;;;;5052750;28;20312;-83
2021/04/09 03:21:26;;;;;;;;;;;24.20;99.90;;;;;;5054020;28;19909;-80
2021/04/09 03:23:53;;;;;;;;;;;24.10;99.90;;;;;;5053983;28;19921;-83
2021/04/09 03:26:19;;;;;;;;;;;24.10;99.90;;;;;;5054224;28;19909;-83
2021/04/09 03:28:46;;;;;;;;;;;24.10;99.90;;;;;;5054093;28;19917;-82
2021/04/09 03:31:13;;;;;;;;;;;24.10;99.90;;;;;;5055126;28;19921;-83
2021/04/09 03:33:39;;;;;;;;;;;24.10;99.90;;;;;;5056287;28;19908;-83
2021/04/09 03:36:06;;;;;;;;;;;24.10;99.90;;;;;;5057165;28;20013;-84
2021/04/09 03:38:33;;;;;;;;;;;24.10;99.90;;;;;;5057490;28;19909;-82
2021/04/09 03:40:59;;;;;;;;;;;24.10;99.90;;;;;;5059784;28;19913;-83
2021/04/09 03:43:26;;;;;;;;;;;24.00;99.90;;;;;;5060272;28;19976;-81
2021/04/09 03:45:53;;;;;;;;;;;24.00;99.90;;;;;;5066385;28;19935;-81
2021/04/09 03:48:19;;;;;;;;;;;24.10;99.90;;;;;;5056655;28;20307;-83
2021/04/09 03:50:46;;;;;;;;;;;24.30;99.90;;;;;;5057795;28;19912;-83
2021/04/09 03:53:13;;;;;;;;;;;24.40;99.90;;;;;;5072645;28;19944;-81
2021/04/09 03:55:39;;;;;;;;;;;24.40;99.90;;;;;;5069191;28;19917;-82
2021/04/09 03:58:07;;;;;;;;;;;24.70;99.90;;;;;;5053276;28;19921;-82
2021/04/09 04:00:34;;;;;;;;;;;24.60;99.90;;;;;;5053046;28;19932;-81
2021/04/09 04:03:00;;;;;;;;;;;24.50;99.90;;;;;;5051687;28;19928;-82
2021/04/09 04:05:27;;;;;;;;;;;24.50;99.90;;;;;;5053137;28;19913;-80
2021/04/09 04:07:53;;;;;;;;;;;24.50;99.90;;;;;;5053327;28;19970;-83
2021/04/09 04:10:20;;;;;;;;;;;24.60;99.90;;;;;;5052111;28;19916;-81
2021/04/09 04:12:47;;;;;;;;;;;24.70;99.90;;;;;;5053151;28;20000;-83
2021/04/09 04:15:14;;;;;;;;;;;24.70;99.90;;;;;;5053189;28;19909;-82
2021/04/09 04:17:40;;;;;;;;;;;24.60;99.90;;;;;;5052688;28;20319;-82
2021/04/09 04:20:07;;;;;;;;;;;24.60;99.90;;;;;;5052651;28;20295;-83
2021/04/09 04:22:34;;;;;;;;;;;24.70;99.90;;;;;;5052714;28;19913;-82
2021/04/09 04:25:01;;;;;;;;;;;24.60;99.90;;;;;;5055097;28;19913;-81
2021/04/09 04:27:28;;;;;;;;;;;24.60;99.90;;;;;;5059756;28;20362;-83
2021/04/09 04:29:54;;;;;;;;;;;24.80;99.90;;;;;;5059448;28;19970;-82
2021/04/09 04:32:21;;;;;;;;;;;24.80;99.70;;;;;;5059421;28;20367;-81
2021/04/09 04:34:48;;;;;;;;;;;24.80;99.90;;;;;;5059412;28;19919;-81
2021/04/09 04:37:14;;;;;;;;;;;24.90;99.60;;;;;;5059641;28;19955;-83
2021/04/09 04:39:41;;;;;;;;;;;24.90;99.90;;;;;;5059261;28;19966;-82
2021/04/09 04:42:08;;;;;;;;;;;25.10;99.50;;;;;;5048707;28;19924;-80
2021/04/09 04:44:34;;;;;;;;;;;25.10;99.60;;;;;;5059052;28;19919;-83
2021/04/09 04:47:01;;;;;;;;;;;25.00;99.90;;;;;;5059573;28;19908;-82
2021/04/09 04:49:28;;;;;;;;;;;25.00;99.90;;;;;;5059257;28;19919;-83
2021/04/09 04:51:54;;;;;;;;;;;25.20;99.90;;;;;;5059211;28;19920;-81
2021/04/09 04:54:21;;;;;;;;;;;25.30;99.80;;;;;;5059133;28;20329;-82
2021/04/09 04:56:47;;;;;;;;;;;25.30;99.00;;;;;;5059231;28;19948;-82
2021/04/09 04:59:14;;;;;;;;;;;25.30;98.80;;;;;;5059317;28;20001;-81
2021/04/09 05:01:41;;;;;;;;;;;25.10;99.20;;;;;;5059344;28;19991;-79
2021/04/09 05:04:08;;;;;;;;;;;25.00;99.80;;;;;;5059352;28;19921;-79
2021/04/09 05:06:34;;;;;;;;;;;24.90;99.90;;;;;;5059022;28;19971;-83
2021/04/09 05:09:01;;;;;;;;;;;25.00;99.90;;;;;;5059286;28;20355;-81
2021/04/09 05:11:27;;;;;;;;;;;25.00;99.60;;;;;;5059026;28;19913;-80
2021/04/09 05:13:54;;;;;;;;;;;25.10;99.50;;;;;;5059247;28;19909;-80
2021/04/09 05:16:24;;;;;;;;;;;25.10;99.10;;;;;;5059253;28;19913;-82
2021/04/09 05:18:50;;;;;;;;;;;25.10;99.20;;;;;;5059206;28;19909;-81
2021/04/09 05:21:17;;;;;;;;;;;25.10;99.60;;;;;;5058945;28;20401;-81
2021/04/09 05:23:44;;;;;;;;;;;25.10;99.70;;;;;;5059167;28;20016;-82
2021/04/09 05:26:10;;;;;;;;;;;25.10;99.80;;;;;;5058950;28;20438;-81
2021/04/09 05:28:37;;;;;;;;;;;25.10;99.90;;;;;;5058148;28;20330;-81
2021/04/09 05:31:03;;;;;;;;;;;25.00;99.70;;;;;;5058427;28;19974;-82
2021/04/09 05:33:30;;;;;;;;;;;25.00;99.90;;;;;;5057949;28;19935;-82
2021/04/09 05:35:57;;;;;;;;;;;24.90;99.90;;;;;;5057462;28;19917;-82
2021/04/09 05:38:24;;;;;;;;;;;24.80;99.90;;;;;;5055456;28;20364;-81
2021/04/09 05:40:50;;;;;;;;;;;25.00;99.90;;;;;;5071296;28;19913;-80
2021/04/09 05:43:17;;;;;;;;;;;25.00;99.50;;;;;;5055662;28;19921;-82
2021/04/09 05:45:44;;;;;;;;;;;24.90;99.40;;;;;;5054225;28;19912;-82
2021/04/09 05:48:11;;;;;;;;;;;25.00;99.60;;;;;;5052613;28;19916;-79
2021/04/09 05:50:38;;;;;;;;;;;24.90;99.90;;;;;;5053547;28;19913;-80
2021/04/09 05:53:04;;;;;;;;;;;25.00;99.50;;;;;;5054088;28;19959;-81
2021/04/09 05:55:31;;;;;;;;;;;25.10;99.40;;;;;;5052272;28;20003;-83
2021/04/09 05:57:58;;;;;;;;;;;25.00;99.90;;;;;;5053945;28;19913;-82
2021/04/09 06:00:27;;;;;;;;;;;25.00;99.30;;;;;;5053630;28;19912;-80
2021/04/09 06:02:54;;;;;;;;;;;25.00;99.20;;;;;;5055383;28;19916;-82
2021/04/09 06:05:21;;;;;;;;;;;25.00;99.50;;;;;;5055753;28;19941;-83
2021/04/09 06:07:48;;;;;;;;;;;25.00;99.50;;;;;;5055619;28;20436;-81
2021/04/09 06:10:16;;;;;;;;;;;25.00;99.50;;;;;;5053946;28;19916;-83
2021/04/09 06:12:42;;;;;;;;;;;25.00;99.30;;;;;;5055467;28;19948;-83
2021/04/09 06:15:10;;;;;;;;;;;24.90;99.30;;;;;;5053756;28;19962;-82
2021/04/09 06:17:37;;;;;;;;;;;24.90;99.80;;;;;;5055330;28;20432;-82
2021/04/09 06:20:08;;;;;;;;;;;24.80;99.80;;;;;;5055206;28;20201;-84
2021/04/09 06:22:35;;;;;;;;;;;24.70;99.90;;;;;;5054913;28;19913;-82
2021/04/09 06:25:04;;;;;;;;;;;24.60;99.70;;;;;;5055215;28;19920;-81
2021/04/09 06:27:31;;;;;;;;;;;24.60;99.90;;;;;;5055203;28;19940;-83
2021/04/09 06:29:57;;;;;;;;;;;24.60;99.90;;;;;;5054747;28;19978;-80
2021/04/09 06:32:24;;;;;;;;;;;24.60;99.90;;;;;;5054886;28;19930;-81
2021/04/09 06:34:51;;;;;;;;;;;24.50;99.90;;;;;;5055183;28;19931;-80
2021/04/09 06:37:17;;;;;;;;;;;24.50;99.90;;;;;;5054761;28;19913;-82
2021/04/09 06:39:44;;;;;;;;;;;24.50;99.90;;;;;;5054796;28;19924;-84
2021/04/09 06:42:11;;;;;;;;;;;24.50;99.90;;;;;;5054750;28;19992;-83
2021/04/09 06:44:38;;;;;;;;;;;24.50;99.90;;;;;;5053158;28;19917;-83
2021/04/09 06:47:06;;;;;;;;;;;24.40;99.90;;;;;;5054849;28;19908;-84
2021/04/09 06:49:33;;;;;;;;;;;24.30;99.90;;;;;;5053510;28;19931;-83
2021/04/09 06:52:00;;;;;;;;;;;24.30;99.90;;;;;;5054620;28;20366;-82
2021/04/09 06:54:27;;;;;;;;;;;24.30;99.90;;;;;;5054301;28;20051;-83
2021/04/09 06:56:56;;;;;;;;;;;24.30;99.70;;;;;;5054430;28;19916;-83
2021/04/09 06:59:24;;;;;;;;;;;24.30;99.90;;;;;;5054484;28;19909;-83
2021/04/09 07:01:52;;;;;;;;;;;24.30;99.60;;;;;;5054529;28;19962;-84
2021/04/09 07:04:18;;;;;;;;;;;24.30;99.30;;;;;;5054210;28;19916;-85
2021/04/09 07:06:45;;;;;;;;;;;24.30;98.90;;;;;;5053994;28;19928;-83
2021/04/09 07:09:16;;;;;;;;;;;24.40;98.90;;;;;;5054181;28;19909;-84
2021/04/09 07:11:53;;;;;;;;;;;24.50;98.60;;;;;;5054301;28;19909;-83
2021/04/09 07:14:19;;;;;;;;;;;24.60;98.40;;;;;;5054412;28;19908;-84
2021/04/09 07:16:56;;;;;;;;;;;24.80;98.20;;;;;;5054210;28;19919;-84
2021/04/09 07:19:35;;;;;;;;;;;24.90;98.50;;;;;;5054300;28;20356;-84
2021/04/09 07:22:06;;;;;;;;;;;24.90;98.60;;;;;;5054312;28;19915;-83
2021/04/09 07:24:33;;;;;;;;;;;25.00;98.40;;;;;;5054050;28;19924;-84
2021/04/09 07:27:00;;;;;;;;;;;25.10;98.50;;;;;;5054226;28;19962;-82
2021/04/09 07:29:35;;;;;;;;;;;25.10;98.40;;;;;;5053473;28;20534;-84
2021/04/09 07:32:08;;;;;;;;;;;25.10;98.20;;;;;;5054028;28;19962;-86
2021/04/09 07:34:53;;;;;;;;;;;25.10;98.30;;;;;;5053532;28;19908;-84
2021/04/09 07:37:20;;;;;;;;;;;25.00;98.30;;;;;;5053796;28;19909;-82
2021/04/09 07:39:47;;;;;;;;;;;25.10;98.50;;;;;;5052475;28;20387;-81
2021/04/09 07:42:14;;;;;;;;;;;25.20;99.20;;;;;;5051627;28;19919;-80
2021/04/09 07:44:42;;;;;;;;;;;25.00;99.90;;;;;;5050031;28;20378;-80
2021/04/09 07:47:09;;;;;;;;;;;24.60;99.90;;;;;;5049851;28;20294;-80
2021/04/09 07:49:36;;;;;;;;;;;24.20;99.90;;;;;;5051580;28;19913;-82
2021/04/09 07:52:13;;;;;;;;;;;23.80;99.90;;;;;;5051185;28;19912;-79
2021/04/09 07:54:40;;;;;;;;;;;23.50;99.90;;;;;;5046562;28;19917;-80
2021/04/09 07:57:07;;;;;;;;;;;23.30;99.90;;;;;;5050838;28;19996;-81
2021/04/09 07:59:52;;;;;;;;;;;23.10;99.90;;;;;;5049941;28;19917;-82
2021/04/09 08:02:37;;;;;;;;;;;23.00;99.90;;;;;;5050907;28;20443;-81
2021/04/09 08:05:04;;;;;;;;;;;22.80;99.90;;;;;;5050551;28;19921;-80
2021/04/09 08:07:34;;;;;;;;;;;22.70;99.90;;;;;;5050188;28;19920;-81
2021/04/09 08:10:01;;;;;;;;;;;22.60;99.90;;;;;;5051256;28;19913;-80
2021/04/09 08:12:31;;;;;;;;;;;22.60;99.90;;;;;;5049995;28;19917;-81
2021/04/09 08:15:11;;;;;;;;;;;22.50;99.90;;;;;;5050958;28;19913;-80
2021/04/09 08:17:38;;;;;;;;;;;22.60;99.90;;;;;;5050746;28;19983;-80
2021/04/09 08:20:12;;;;;;;;;;;22.50;99.90;;;;;;5048605;28;19970;-81
2021/04/09 08:22:39;;;;;;;;;;;22.40;99.90;;;;;;5043127;28;19917;-81
2021/04/09 08:25:06;;;;;;;;;;;22.30;99.90;;;;;;5051232;28;19930;-80
2021/04/09 08:27:34;;;;;;;;;;;22.20;99.90;;;;;;5050389;28;19913;-80
2021/04/09 08:30:01;;;;;;;;;;;22.20;99.90;;;;;;5050375;28;19927;-81
2021/04/09 08:32:30;;;;;;;;;;;22.10;99.90;;;;;;5050145;28;19917;-81
2021/04/09 08:34:57;;;;;;;;;;;22.00;99.90;;;;;;5046669;28;19913;-80
2021/04/09 08:37:24;;;;;;;;;;;22.00;99.90;;;;;;5050570;28;19913;-80
2021/04/09 08:39:51;;;;;;;;;;;21.90;99.90;;;;;;5050730;28;19909;-81
2021/04/09 08:42:18;;;;;;;;;;;21.90;99.90;;;;;;5050604;28;20276;-81
2021/04/09 08:44:45;;;;;;;;;;;21.80;99.90;;;;;;5050559;28;20260;-79
2021/04/09 08:47:12;;;;;;;;;;;21.80;99.90;;;;;;5050234;28;20007;-80
2021/04/09 08:49:42;;;;;;;;;;;21.80;99.90;;;;;;5050910;28;19996;-79
2021/04/09 08:52:09;;;;;;;;;;;21.70;99.90;;;;;;5050119;28;19924;-81
2021/04/09 08:54:48;;;;;;;;;;;21.70;99.90;;;;;;5050689;28;19936;-80
2021/04/09 08:57:26;;;;;;;;;;;21.70;99.90;;;;;;5052201;28;19908;-82
2021/04/09 09:00:09;;;;;;;;;;;21.70;99.90;;;;;;5052487;28;19909;-82
2021/04/09 09:02:40;;;;;;;;;;;21.60;99.90;;;;;;5052814;28;19978;-82
2021/04/09 09:05:07;;;;;;;;;;;21.60;99.90;;;;;;5052336;28;20306;-82
2021/04/09 09:07:51;;;;;;;;;;;21.60;99.90;;;;;;5053104;28;19909;-82
2021/04/09 09:10:24;;;;;;;;;;;21.70;99.90;;;;;;5053110;28;20421;-82
2021/04/09 09:13:03;;;;;;;;;;;21.70;99.90;;;;;;5054610;28;19912;-81
2021/04/09 09:15:39;;;;;;;;;;;21.70;99.90;;;;;;5056184;28;19936;-81
2021/04/09 09:18:25;;;;;;;;;;;21.70;99.90;;;;;;5056520;28;19909;-82
2021/04/09 09:21:11;;;;;;;;;;;21.60;99.90;;;;;;5056151;28;19913;-82
2021/04/09 09:23:56;;;;;;;;;;;21.60;99.90;;;;;;5038825;28;20019;-83
2021/04/09 09:26:24;;;;;;;;;;;21.50;99.90;;;;;;5036220;28;19913;-85
2021/04/09 09:29:09;;;;;;;;;;;21.40;99.90;;;;;;5036007;28;19910;-83
2021/04/09 09:31:38;;;;;;;;;;;21.40;99.90;;;;;;5036432;28;19915;-83
2021/04/09 09:34:19;;;;;;;;;;;21.40;99.90;;;;;;5038471;28;19909;-84
2021/04/09 09:37:07;;;;;;;;;;;21.40;99.90;;;;;;5055249;28;19912;-80
2021/04/09 09:39:33;;;;;;;;;;;21.40;99.90;;;;;;5054807;28;19916;-80
2021/04/09 09:42:01;;;;;;;;;;;21.30;99.90;;;;;;5053344;28;19923;-79
2021/04/09 09:44:29;;;;;;;;;;;21.20;99.90;;;;;;5052964;28;19929;-80
2021/04/09 09:46:59;;;;;;;;;;;21.20;99.90;;;;;;5052229;28;20542;-84
2021/04/09 09:49:27;;;;;;;;;;;21.20;99.90;;;;;;5047771;28;20017;-81
2021/04/09 09:51:54;;;;;;;;;;;21.20;99.90;;;;;;5052550;28;19978;-81
2021/04/09 09:54:21;;;;;;;;;;;21.20;99.90;;;;;;5052312;28;19913;-82
2021/04/09 09:56:48;;;;;;;;;;;21.10;99.90;;;;;;5051927;28;19913;-82
2021/04/09 09:59:19;;;;;;;;;;;21.20;99.90;;;;;;5053256;28;19908;-82
2021/04/09 10:01:52;;;;;;;;;;;21.20;99.90;;;;;;5048062;28;19913;-81
2021/04/09 10:04:19;;;;;;;;;;;21.20;99.90;;;;;;5052007;28;20010;-81
2021/04/09 10:06:53;;;;;;;;;;;21.20;99.90;;;;;;5052424;28;19917;-81
2021/04/09 10:09:24;;;;;;;;;;;21.10;99.90;;;;;;5051972;28;19939;-81
2021/04/09 10:11:51;;;;;;;;;;;21.10;99.90;;;;;;5051889;28;19917;-81
2021/04/09 10:14:18;;;;;;;;;;;21.10;99.90;;;;;;5052432;28;20001;-82
2021/04/09 10:16:45;;;;;;;;;;;21.00;99.90;;;;;;5052057;28;19958;-79
2021/04/09 10:19:12;;;;;;;;;;;21.00;99.90;;;;;;5052340;28;19920;-81
2021/04/09 10:21:40;;;;;;;;;;;21.00;99.90;;;;;;5051698;28;19921;-81
2021/04/09 10:24:08;;;;;;;;;;;21.00;99.90;;;;;;5051250;28;20023;-80
2021/04/09 10:26:35;;;;;;;;;;;21.00;99.90;;;;;;5051810;28;19981;-80
2021/04/09 10:29:02;;;;;;;;;;;21.00;99.90;;;;;;5049576;28;19969;-81
2021/04/09 10:31:29;;;;;;;;;;;21.00;99.90;;;;;;5052204;28;20287;-81
2021/04/09 10:33:57;;;;;;;;;;;21.00;99.90;;;;;;5051807;28;19912;-81
2021/04/09 10:36:28;;;;;;;;;;;21.00;99.90;;;;;;5051905;28;19912;-80
2021/04/09 10:38:56;;;;;;;;;;;20.90;99.90;;;;;;5051953;28;20264;-79
2021/04/09 10:41:33;;;;;;;;;;;20.90;99.90;;;;;;5051444;28;19920;-79
2021/04/09 10:44:02;;;;;;;;;;;20.90;99.90;;;;;;5051521;28;19975;-80
2021/04/09 10:46:30;;;;;;;;;;;20.90;99.90;;;;;;5031977;28;19910;-81
2021/04/09 10:49:01;;;;;;;;;;;20.90;99.90;;;;;;5046375;28;19913;-82
2021/04/09 10:51:31;;;;;;;;;;;20.90;99.90;;;;;;5051522;28;19920;-80
2021/04/09 10:53:58;;;;;;;;;;;20.80;99.90;;;;;;5051579;28;19974;-82
2021/04/09 10:56:25;;;;;;;;;;;20.80;99.90;;;;;;5052059;28;19917;-81
2021/04/09 10:58:52;;;;;;;;;;;20.80;99.90;;;;;;5049945;28;20562;-81
2021/04/09 11:01:23;;;;;;;;;;;20.80;99.90;;;;;;5051894;28;20039;-79
2021/04/09 11:03:50;;;;;;;;;;;20.80;99.90;;;;;;5051757;28;19921;-79
2021/04/09 11:06:19;;;;;;;;;;;20.80;99.90;;;;;;5051105;28;19920;-81
2021/04/09 11:08:45;;;;;;;;;;;20.80;99.90;;;;;;5050929;28;19913;-81
2021/04/09 11:11:14;;;;;;;;;;;20.80;99.90;;;;;;5051276;28;19954;-80
2021/04/09 11:13:43;;;;;;;;;;;20.90;99.90;;;;;;5049079;28;19938;-79
2021/04/09 11:16:11;;;;;;;;;;;20.90;99.90;;;;;;5050344;28;20002;-81
2021/04/09 11:18:50;;;;;;;;;;;21.00;99.90;;;;;;5051124;28;19921;-83
2021/04/09 11:21:36;;;;;;;;;;;21.00;99.90;;;;;;5051161;28;20347;-82
2021/04/09 11:24:03;;;;;;;;;;;21.00;99.90;;;;;;5050590;28;19997;-80
2021/04/09 11:26:34;;;;;;;;;;;20.90;99.90;;;;;;5048513;28;19913;-81
2021/04/09 11:29:01;;;;;;;;;;;20.90;99.90;;;;;;5050409;28;19916;-82
2021/04/09 11:31:27;;;;;;;;;;;20.90;99.90;;;;;;5049888;28;19932;-81
2021/04/09 11:34:04;;;;;;;;;;;20.80;99.90;;;;;;5050382;28;19912;-81
2021/04/09 11:36:37;;;;;;;;;;;20.80;99.90;;;;;;5050002;28;19916;-81
2021/04/09 11:39:07;;;;;;;;;;;20.80;99.90;;;;;;5050978;28;19965;-82
2021/04/09 11:41:34;;;;;;;;;;;20.70;99.90;;;;;;5048035;28;20364;-81
2021/04/09 11:44:01;;;;;;;;;;;20.70;99.90;;;;;;5050105;28;19947;-80
2021/04/09 11:46:38;;;;;;;;;;;20.70;99.90;;;;;;5049808;28;20276;-81
2021/04/09 11:49:06;;;;;;;;;;;20.70;99.90;;;;;;5050171;28;20030;-83
2021/04/09 11:51:36;;;;;;;;;;;20.70;99.90;;;;;;5049775;28;19962;-81
2021/04/09 11:54:06;;;;;;;;;;;20.70;99.90;;;;;;5050409;28;19920;-80
2021/04/09 11:56:47;;;;;;;;;;;20.80;99.90;;;;;;5049085;28;19957;-80
2021/04/09 11:59:15;;;;;;;;;;;20.80;99.90;;;;;;5049391;28;20367;-81
2021/04/09 12:01:42;;;;;;;;;;;20.80;99.90;;;;;;5050383;28;19912;-82
2021/04/09 12:04:35;;;;;;;;;;;20.70;99.90;;;;;;5050670;28;19988;-83
2021/04/09 12:07:03;;;;;;;;;;;20.70;99.90;;;;;;5048722;28;20336;-80
2021/04/09 12:09:29;;;;;;;;;;;20.70;99.90;;;;;;5050533;28;19920;-83
2021/04/09 12:11:56;;;;;;;;;;;20.70;99.90;;;;;;5047715;28;19985;-81
2021/04/09 12:14:33;;;;;;;;;;;20.70;99.90;;;;;;5050029;28;19920;-79
2021/04/09 12:17:00;;;;;;;;;;;20.60;99.90;;;;;;5050562;28;19916;-80
2021/04/09 12:19:27;;;;;;;;;;;20.60;99.90;;;;;;5051042;28;19913;-79
2021/04/09 12:21:53;;;;;;;;;;;20.60;99.90;;;;;;5046717;28;19913;-79
2021/04/09 12:24:20;;;;;;;;;;;20.50;99.90;;;;;;5049860;28;19929;-80
2021/04/09 12:26:47;;;;;;;;;;;20.50;99.90;;;;;;5049361;28;19962;-79
2021/04/09 12:29:14;;;;;;;;;;;20.50;99.90;;;;;;5050065;28;20020;-80
2021/04/09 12:31:40;;;;;;;;;;;20.50;99.90;;;;;;5051044;28;20020;-79
2021/04/09 12:34:07;;;;;;;;;;;20.50;99.90;;;;;;5038033;28;19999;-80
2021/04/09 12:36:37;;;;;;;;;;;20.50;99.90;;;;;;5049457;28;19917;-79
2021/04/09 12:39:08;;;;;;;;;;;20.50;99.90;;;;;;5049762;28;20291;-80
2021/04/09 12:41:35;;;;;;;;;;;20.50;99.90;;;;;;5049826;28;19924;-80
2021/04/09 12:44:02;;;;;;;;;;;20.50;99.90;;;;;;5050197;28;19965;-80
2021/04/09 12:46:29;;;;;;;;;;;20.50;99.90;;;;;;5051030;28;19916;-80
2021/04/09 12:48:55;;;;;;;;;;;20.50;99.90;;;;;;5054224;28;19956;-79
2021/04/09 12:51:23;;;;;;;;;;;20.60;99.90;;;;;;5053165;28;19994;-79
2021/04/09 12:53:49;;;;;;;;;;;20.50;99.90;;;;;;5054039;28;20016;-78
2021/04/09 12:56:17;;;;;;;;;;;20.60;99.90;;;;;;5053477;28;19917;-78
2021/04/09 12:58:44;;;;;;;;;;;20.60;99.90;;;;;;5053069;28;19971;-80
2021/04/09 13:01:11;;;;;;;;;;;20.60;99.90;;;;;;5053906;28;19924;-80
2021/04/09 13:03:38;;;;;;;;;;;20.60;99.90;;;;;;5053456;28;19935;-79
2021/04/09 13:06:09;;;;;;;;;;;20.60;99.90;;;;;;5053628;28;19917;-79
2021/04/09 13:08:36;;;;;;;;;;;20.70;99.90;;;;;;5053777;28;20015;-79
2021/04/09 13:11:03;;;;;;;;;;;20.70;99.90;;;;;;5053667;28;19917;-79
2021/04/09 13:13:30;;;;;;;;;;;20.70;99.90;;;;;;5054277;28;19909;-79
2021/04/09 13:16:06;;;;;;;;;;;20.70;99.90;;;;;;5053524;28;20346;-80
2021/04/09 13:18:33;;;;;;;;;;;20.70;99.90;;;;;;5052786;28;20292;-79
2021/04/09 13:21:01;;;;;;;;;;;20.70;99.90;;;;;;5053757;28;20048;-79
2021/04/09 13:23:27;;;;;;;;;;;20.70;99.90;;;;;;5053492;28;19925;-79
2021/04/09 13:25:54;;;;;;;;;;;20.60;99.90;;;;;;5053318;28;19955;-79
2021/04/09 13:28:22;;;;;;;;;;;20.60;99.90;;;;;;5050980;28;19923;-79
2021/04/09 13:30:55;;;;;;;;;;;20.60;99.90;;;;;;5052690;28;19921;-81
2021/04/09 13:33:23;;;;;;;;;;;20.60;99.90;;;;;;5052519;28;19955;-79
2021/04/09 13:35:50;;;;;;;;;;;20.60;99.90;;;;;;5052797;28;19912;-79
2021/04/09 13:38:18;;;;;;;;;;;20.60;99.90;;;;;;5053283;28;19952;-79
2021/04/09 13:40:45;;;;;;;;;;;20.60;99.90;;;;;;5053049;28;19912;-79
2021/04/09 13:43:11;;;;;;;;;;;20.60;99.90;;;;;;5052416;28;19924;-80
2021/04/09 13:45:38;;;;;;;;;;;20.60;99.90;;;;;;5052405;28;20375;-78
2021/04/09 13:48:05;;;;;;;;;;;20.60;99.90;;;;;;5054036;28;19916;-78
2021/04/09 13:50:32;;;;;;;;;;;20.60;99.90;;;;;;5062049;28;19971;-79
2021/04/09 13:52:59;;;;;;;;;;;20.60;99.90;;;;;;5067637;28;19957;-79
2021/04/09 13:55:26;;;;;;;;;;;20.60;99.90;;;;;;5062654;28;19912;-80
2021/04/09 13:57:52;;;;;;;;;;;20.50;99.90;;;;;;5060731;28;19955;-78
2021/04/09 14:00:19;;;;;;;;;;;20.50;99.90;;;;;;5071969;28;19976;-80
2021/04/09 14:02:46;;;;;;;;;;;20.50;99.90;;;;;;5065218;28;19924;-78
2021/04/09 14:05:13;;;;;;;;;;;20.50;99.90;;;;;;5073029;28;19965;-80
2021/04/09 14:07:39;;;;;;;;;;;20.40;99.90;;;;;;5073953;28;20011;-79
2021/04/09 14:10:07;;;;;;;;;;;20.40;99.90;;;;;;5074012;28;19940;-79
2021/04/09 14:12:34;;;;;;;;;;;20.30;99.90;;;;;;5074451;28;19909;-80
2021/04/09 14:15:00;;;;;;;;;;;20.30;99.90;;;;;;5075003;28;19909;-80
2021/04/09 14:17:27;;;;;;;;;;;20.20;99.90;;;;;;5073492;28;19971;-79
2021/04/09 14:19:54;;;;;;;;;;;20.20;99.90;;;;;;5073918;28;19913;-80
2021/04/09 14:22:20;;;;;;;;;;;20.20;99.90;;;;;;5073993;28;19904;-81
2021/04/09 14:24:47;;;;;;;;;;;20.10;99.90;;;;;;5076167;28;19960;-80